Wetterdaten: Woche 03.12.18 - 09.12.18 (KW49)
Datum Zeit Temp. I. Temp. A. Feuchte I. Feuchte A. Luftdruck Regen Wind Richtung Taupunkt Windchill
03.12.2018 00:00 22,6 °C 10,7 °C 48 % 94 % 1000,1 hPa 0,0 l/m² 10,6 km/h (2 Bft) W-SW 9,7 °C 8,2 °C
03.12.2018 01:00 22,5 °C 10,4 °C 47 % 94 % 1000,0 hPa 0,0 l/m² 8,6 km/h (2 Bft) SW 9,5 °C 8,6 °C
03.12.2018 02:00 22,5 °C 9,6 °C 47 % 93 % 999,9 hPa 0,0 l/m² 1,1 km/h (1 Bft) SW 8,5 °C 9,6 °C
03.12.2018 03:00 22,5 °C 8,5 °C 47 % 94 % 999,9 hPa 0,0 l/m² 0,4 km/h (0 Bft) SW 7,6 °C 8,5 °C
03.12.2018 04:00 22,5 °C 9,6 °C 48 % 94 % 999,9 hPa 2,6 l/m² 5,3 km/h (1 Bft) SW 8,7 °C 9,5 °C
03.12.2018 05:00 22,5 °C 10,0 °C 48 % 95 % 999,5 hPa 1,0 l/m² 1,5 km/h (1 Bft) SO 9,2 °C 10,0 °C
03.12.2018 06:00 22,5 °C 10,1 °C 49 % 95 % 999,4 hPa 0,0 l/m² 3,8 km/h (1 Bft) S 9,3 °C 9,5 °C
03.12.2018 07:00 22,4 °C 10,9 °C 48 % 95 % 999,2 hPa 0,0 l/m² 16,7 km/h (3 Bft) SW 10,1 °C 6,0 °C
03.12.2018 08:00 22,4 °C 11,3 °C 48 % 95 % 999,5 hPa 0,0 l/m² 18,4 km/h (3 Bft) SW 10,5 °C 5,6 °C
03.12.2018 09:00 22,4 °C 11,4 °C 48 % 94 % 1000,0 hPa 0,0 l/m² 17,7 km/h (3 Bft) W-SW 10,5 °C 5,9 °C
03.12.2018 10:00 22,4 °C 11,9 °C 48 % 94 % 1000,5 hPa 0,5 l/m² 17,0 km/h (3 Bft) W-SW 11,0 °C 7,0 °C
03.12.2018 11:00 22,6 °C 12,9 °C 48 % 91 % 1000,2 hPa 0,0 l/m² 23,9 km/h (4 Bft) W-SW 11,6 °C 6,2 °C
03.12.2018 12:00 22,7 °C 12,9 °C 48 % 90 % 1000,0 hPa 0,0 l/m² 18,2 km/h (3 Bft) W-SW 11,3 °C 7,8 °C
03.12.2018 13:00 22,9 °C 13,1 °C 47 % 88 % 999,8 hPa 0,0 l/m² 12,1 km/h (2 Bft) W 11,2 °C 10,2 °C
03.12.2018 14:00 23,0 °C 13,9 °C 47 % 86 % 999,6 hPa 0,0 l/m² 16,2 km/h (3 Bft) W-SW 11,6 °C 9,6 °C
03.12.2018 15:00 23,0 °C 13,5 °C 47 % 84 % 999,7 hPa 0,0 l/m² 14,4 km/h (3 Bft) W-SW 10,9 °C 9,7 °C
03.12.2018 16:00 22,8 °C 11,4 °C 47 % 87 % 999,7 hPa 0,0 l/m² 10,6 km/h (2 Bft) SW 9,3 °C 8,9 °C
03.12.2018 17:00 22,7 °C 10,3 °C 47 % 90 % 999,7 hPa 0,0 l/m² 12,1 km/h (2 Bft) S-SW 8,6 °C 7,0 °C
03.12.2018 18:00 22,7 °C 9,8 °C 47 % 90 % 999,8 hPa 0,0 l/m² 7,6 km/h (2 Bft) S-SW 8,2 °C 8,3 °C
03.12.2018 19:00 22,8 °C 9,0 °C 48 % 91 % 999,8 hPa 0,0 l/m² 3,9 km/h (1 Bft) S-SW 7,6 °C 8,6 °C
03.12.2018 20:00 22,8 °C 8,5 °C 49 % 91 % 999,8 hPa 0,0 l/m² 2,9 km/h (1 Bft) S-SW 7,2 °C 8,4 °C
03.12.2018 21:00 23,1 °C 9,3 °C 50 % 92 % 999,6 hPa 0,0 l/m² 5,7 km/h (2 Bft) W-SW 8,0 °C 9,0 °C
03.12.2018 22:00 23,4 °C 10,0 °C 50 % 92 % 999,7 hPa 0,5 l/m² 16,4 km/h (3 Bft) SW 8,8 °C 4,8 °C
03.12.2018 23:00 23,2 °C 9,7 °C 49 % 92 % 1000,2 hPa 0,0 l/m² 8,8 km/h (2 Bft) SW 8,5 °C 8,0 °C
04.12.2018 00:00 23,0 °C 9,5 °C 49 % 92 % 1000,7 hPa 0,0 l/m² 15,2 km/h (3 Bft) SW 8,3 °C 4,8 °C
04.12.2018 01:00 22,8 °C 9,9 °C 49 % 92 % 1001,2 hPa 0,0 l/m² 16,5 km/h (3 Bft) W-SW 8,7 °C 4,5 °C
04.12.2018 02:00 22,6 °C 10,0 °C 49 % 92 % 1001,8 hPa 0,0 l/m² 16,8 km/h (3 Bft) W-SW 8,8 °C 4,6 °C
04.12.2018 03:00 22,5 °C 10,2 °C 49 % 92 % 1002,8 hPa 1,6 l/m² 18,9 km/h (3 Bft) W-SW 8,9 °C 4,2 °C
04.12.2018 04:00 22,5 °C 8,7 °C 49 % 92 % 1004,5 hPa 0,5 l/m² 12,9 km/h (3 Bft) N-NW 7,4 °C 4,9 °C
04.12.2018 05:00 22,5 °C 7,7 °C 49 % 92 % 1006,2 hPa 0,0 l/m² 12,3 km/h (2 Bft) NW 6,5 °C 4,2 °C
04.12.2018 06:00 22,5 °C 7,4 °C 49 % 91 % 1007,9 hPa 0,0 l/m² 18,2 km/h (3 Bft) W-NW 6,1 °C 1,1 °C
04.12.2018 07:00 22,3 °C 7,4 °C 47 % 91 % 1009,7 hPa 0,0 l/m² 19,9 km/h (4 Bft) W-NW 6,0 °C 0,1 °C
04.12.2018 08:00 22,4 °C 7,3 °C 47 % 90 % 1011,5 hPa 0,0 l/m² 17,8 km/h (3 Bft) NW 5,8 °C 0,9 °C
04.12.2018 09:00 22,5 °C 7,2 °C 48 % 89 % 1012,9 hPa 0,0 l/m² 14,6 km/h (3 Bft) NW 5,6 °C 2,3 °C
04.12.2018 10:00 23,1 °C 8,0 °C 47 % 87 % 1014,1 hPa 0,0 l/m² 20,0 km/h (4 Bft) W-NW 6,0 °C 1,0 °C
04.12.2018 11:00 23,5 °C 8,4 °C 46 % 84 % 1014,9 hPa 0,0 l/m² 18,8 km/h (3 Bft) NW 6,0 °C 2,1 °C
04.12.2018 12:00 23,6 °C 8,2 °C 46 % 81 % 1015,8 hPa 0,0 l/m² 19,7 km/h (3 Bft) NW 5,2 °C 1,6 °C
04.12.2018 13:00 23,8 °C 8,7 °C 46 % 79 % 1016,6 hPa 0,0 l/m² 23,2 km/h (4 Bft) W-NW 5,2 °C 0,8 °C
04.12.2018 14:00 23,7 °C 8,3 °C 46 % 77 % 1017,5 hPa 0,0 l/m² 20,2 km/h (4 Bft) NW 4,5 °C 1,4 °C
04.12.2018 15:00 23,5 °C 6,7 °C 46 % 77 % 1018,7 hPa 0,0 l/m² 18,5 km/h (3 Bft) W-NW 3,1 °C -0,1 °C
04.12.2018 16:00 23,3 °C 5,1 °C 46 % 80 % 1020,0 hPa 0,0 l/m² 12,1 km/h (2 Bft) W-NW 2,0 °C 1,2 °C
04.12.2018 17:00 23,2 °C 3,7 °C 47 % 83 % 1021,2 hPa 0,0 l/m² 3,3 km/h (1 Bft) NW 1,0 °C 3,7 °C
04.12.2018 18:00 23,2 °C 2,7 °C 48 % 85 % 1022,0 hPa 0,0 l/m² 3,9 km/h (1 Bft) W 0,4 °C 2,7 °C
04.12.2018 19:00 23,2 °C 1,9 °C 47 % 86 % 1022,6 hPa 0,0 l/m² 3,7 km/h (1 Bft) W-NW -0,1 °C 1,9 °C
04.12.2018 20:00 22,9 °C 0,9 °C 46 % 88 % 1023,3 hPa 0,0 l/m² 3,0 km/h (1 Bft) SW -0,9 °C 0,8 °C
04.12.2018 21:00 23,1 °C 0,7 °C 48 % 89 % 1024,1 hPa 0,0 l/m² 3,0 km/h (1 Bft) SW -0,9 °C 0,6 °C
04.12.2018 22:00 23,3 °C 0,4 °C 48 % 90 % 1024,8 hPa 0,0 l/m² 2,2 km/h (1 Bft) S -1,1 °C 0,4 °C
04.12.2018 23:00 23,1 °C 0,3 °C 47 % 91 % 1025,5 hPa 0,0 l/m² 1,1 km/h (0 Bft) S -1,0 °C 0,3 °C
05.12.2018 00:00 23,0 °C 0,2 °C 47 % 91 % 1025,7 hPa 0,0 l/m² 1,0 km/h (0 Bft) S -1,1 °C 0,2 °C
05.12.2018 01:00 23,0 °C -0,0 °C 47 % 92 % 1025,9 hPa 0,0 l/m² 0,2 km/h (0 Bft) S -1,2 °C -0,0 °C
05.12.2018 02:00 23,0 °C -0,2 °C 47 % 92 % 1026,1 hPa 0,0 l/m² 0,7 km/h (0 Bft) S -1,4 °C -0,2 °C
05.12.2018 03:00 22,9 °C -0,5 °C 47 % 92 % 1026,2 hPa 0,0 l/m² 0,2 km/h (0 Bft) S -1,6 °C -0,5 °C
05.12.2018 04:00 22,9 °C -0,7 °C 47 % 92 % 1026,5 hPa 0,0 l/m² 0,0 km/h (0 Bft) S -1,9 °C -0,7 °C
05.12.2018 05:00 22,8 °C -1,2 °C 47 % 92 % 1026,7 hPa 0,0 l/m² 1,1 km/h (1 Bft) S -2,2 °C -1,2 °C
05.12.2018 06:00 22,8 °C -1,8 °C 46 % 93 % 1026,9 hPa 0,0 l/m² 2,5 km/h (1 Bft) O-SO -2,8 °C -1,8 °C
05.12.2018 07:00 22,8 °C -2,5 °C 44 % 93 % 1027,0 hPa 0,0 l/m² 2,2 km/h (1 Bft) O-SO -3,5 °C -2,5 °C
05.12.2018 08:00 23,1 °C -2,5 °C 44 % 93 % 1027,4 hPa 0,0 l/m² 1,1 km/h (1 Bft) O-NO -3,5 °C -2,5 °C
05.12.2018 09:00 23,9 °C -0,6 °C 43 % 94 % 1027,3 hPa 0,0 l/m² 0,3 km/h (0 Bft) O-NO -1,5 °C -0,6 °C
05.12.2018 10:00 24,0 °C 1,2 °C 44 % 94 % 1027,2 hPa 0,0 l/m² 0,9 km/h (0 Bft) SO 0,3 °C 1,2 °C
05.12.2018 11:00 24,3 °C 3,1 °C 44 % 94 % 1026,6 hPa 0,0 l/m² 0,3 km/h (0 Bft) O-SO 2,2 °C 3,1 °C
05.12.2018 12:00 24,5 °C 4,5 °C 43 % 91 % 1025,9 hPa 0,0 l/m² 7,0 km/h (2 Bft) S 3,2 °C 3,0 °C
05.12.2018 13:00 24,5 °C 5,8 °C 43 % 87 % 1025,4 hPa 0,0 l/m² 7,3 km/h (2 Bft) S-SO 3,8 °C 4,7 °C
05.12.2018 14:00 24,4 °C 6,1 °C 44 % 82 % 1024,9 hPa 0,0 l/m² 7,5 km/h (2 Bft) S-SO 3,3 °C 4,9 °C
05.12.2018 15:00 24,1 °C 4,6 °C 44 % 83 % 1024,4 hPa 0,0 l/m² 7,0 km/h (2 Bft) O-SO 1,9 °C 3,7 °C
05.12.2018 16:00 23,8 °C 2,0 °C 44 % 86 % 1023,9 hPa 0,0 l/m² 1,3 km/h (1 Bft) NO -0,0 °C 2,0 °C
05.12.2018 17:00 23,6 °C 0,6 °C 44 % 89 % 1023,5 hPa 0,0 l/m² 1,8 km/h (1 Bft) NO -1,1 °C 0,5 °C
05.12.2018 18:00 23,4 °C 1,0 °C 42 % 90 % 1022,9 hPa 0,0 l/m² 7,4 km/h (2 Bft) SO -0,5 °C -0,3 °C
05.12.2018 19:00 23,4 °C 2,0 °C 44 % 90 % 1022,1 hPa 0,0 l/m² 8,7 km/h (2 Bft) O-SO 0,4 °C -0,2 °C
05.12.2018 20:00 23,2 °C 2,8 °C 45 % 86 % 1021,3 hPa 0,0 l/m² 9,8 km/h (2 Bft) S-SO 0,8 °C -0,0 °C
05.12.2018 21:00 23,4 °C 2,9 °C 46 % 84 % 1020,7 hPa 0,0 l/m² 10,4 km/h (2 Bft) SO 0,5 °C -0,4 °C
05.12.2018 22:00 23,8 °C 2,8 °C 45 % 84 % 1019,9 hPa 0,0 l/m² 8,1 km/h (2 Bft) SO 0,4 °C 0,8 °C
05.12.2018 23:00 23,5 °C 2,7 °C 45 % 84 % 1019,1 hPa 0,0 l/m² 8,1 km/h (2 Bft) SO 0,2 °C 0,9 °C
06.12.2018 00:00 23,3 °C 2,9 °C 45 % 84 % 1018,7 hPa 0,0 l/m² 6,3 km/h (2 Bft) SO 0,4 °C 2,2 °C
06.12.2018 01:00 23,1 °C 2,8 °C 45 % 85 % 1018,3 hPa 0,0 l/m² 9,2 km/h (2 Bft) SO 0,5 °C 0,6 °C
06.12.2018 02:00 23,0 °C 2,6 °C 45 % 88 % 1017,8 hPa 0,5 l/m² 10,0 km/h (2 Bft) O 0,8 °C -0,4 °C
06.12.2018 03:00 23,0 °C 2,7 °C 46 % 89 % 1016,9 hPa 0,0 l/m² 7,7 km/h (2 Bft) O-SO 1,0 °C 1,1 °C
06.12.2018 04:00 22,9 °C 3,2 °C 46 % 87 % 1015,9 hPa 0,0 l/m² 10,4 km/h (2 Bft) SO 1,2 °C -0,1 °C
06.12.2018 05:00 22,8 °C 3,7 °C 46 % 83 % 1015,2 hPa 0,0 l/m² 12,1 km/h (2 Bft) S-SO 1,1 °C -0,6 °C
06.12.2018 06:00 22,7 °C 3,3 °C 46 % 83 % 1014,9 hPa 0,0 l/m² 6,7 km/h (2 Bft) SO 0,7 °C 1,9 °C
06.12.2018 07:00 22,6 °C 3,4 °C 44 % 84 % 1014,9 hPa 0,0 l/m² 5,9 km/h (2 Bft) S-SO 1,0 °C 2,6 °C
06.12.2018 08:00 22,6 °C 4,0 °C 44 % 85 % 1015,1 hPa 0,0 l/m² 6,0 km/h (2 Bft) S-SO 1,8 °C 3,2 °C
06.12.2018 09:00 22,5 °C 4,5 °C 45 % 87 % 1015,5 hPa 0,0 l/m² 4,3 km/h (1 Bft) W-SW 2,5 °C 4,5 °C
06.12.2018 10:00 22,8 °C 4,7 °C 45 % 87 % 1015,8 hPa 0,0 l/m² 4,3 km/h (1 Bft) W-SW 2,7 °C 4,7 °C
06.12.2018 11:00 22,8 °C 4,7 °C 45 % 87 % 1015,7 hPa 0,0 l/m² 4,3 km/h (1 Bft) W-SW 2,7 °C 4,7 °C
06.12.2018 12:00 22,6 °C 7,0 °C 45 % 87 % 1014,9 hPa 0,0 l/m² 7,0 km/h (2 Bft) S 5,0 °C 5,6 °C
06.12.2018 13:00 22,7 °C 8,1 °C 45 % 88 % 1014,8 hPa 0,0 l/m² 12,6 km/h (2 Bft) W-SW 6,2 °C 4,2 °C
06.12.2018 14:00 22,7 °C 7,9 °C 45 % 89 % 1014,7 hPa 0,0 l/m² 16,1 km/h (3 Bft) W-SW 6,2 °C 2,4 °C
06.12.2018 15:00 22,6 °C 7,9 °C 45 % 89 % 1015,0 hPa 0,0 l/m² 9,2 km/h (2 Bft) W 6,2 °C 5,8 °C
06.12.2018 16:00 22,6 °C 8,0 °C 45 % 90 % 1015,3 hPa 0,0 l/m² 9,4 km/h (2 Bft) W 6,5 °C 5,9 °C
06.12.2018 17:00 22,6 °C 8,2 °C 46 % 91 % 1015,2 hPa 0,0 l/m² 7,4 km/h (2 Bft) W-SW 6,8 °C 6,9 °C
06.12.2018 18:00 22,7 °C 8,4 °C 46 % 91 % 1015,1 hPa 0,0 l/m² 16,3 km/h (3 Bft) W-SW 7,1 °C 3,1 °C
06.12.2018 19:00 22,8 °C 8,4 °C 47 % 91 % 1015,4 hPa 0,0 l/m² 11,9 km/h (2 Bft) W-SW 7,0 °C 5,7 °C
06.12.2018 20:00 22,8 °C 7,7 °C 46 % 92 % 1014,9 hPa 0,0 l/m² 3,3 km/h (1 Bft) S 6,4 °C 7,7 °C
06.12.2018 21:00 23,0 °C 7,5 °C 48 % 92 % 1014,4 hPa 0,0 l/m² 2,7 km/h (1 Bft) S 6,3 °C 7,5 °C
06.12.2018 22:00 23,2 °C 8,0 °C 47 % 93 % 1014,1 hPa 0,0 l/m² 6,8 km/h (2 Bft) S-SW 7,0 °C 6,9 °C
06.12.2018 23:00 23,1 °C 9,5 °C 47 % 92 % 1013,6 hPa 0,0 l/m² 11,5 km/h (2 Bft) S-SW 8,3 °C 6,3 °C
07.12.2018 00:00 22,9 °C 10,2 °C 48 % 90 % 1013,1 hPa 0,0 l/m² 14,5 km/h (3 Bft) SW 8,7 °C 5,8 °C
07.12.2018 01:00 22,9 °C 10,6 °C 49 % 89 % 1012,6 hPa 0,0 l/m² 13,0 km/h (3 Bft) SW 8,9 °C 6,9 °C
07.12.2018 02:00 22,8 °C 11,1 °C 49 % 89 % 1012,1 hPa 0,0 l/m² 14,0 km/h (3 Bft) W-SW 9,4 °C 7,1 °C
07.12.2018 03:00 22,8 °C 11,5 °C 49 % 89 % 1011,4 hPa 0,0 l/m² 15,0 km/h (3 Bft) W-SW 9,7 °C 7,1 °C
07.12.2018 04:00 22,7 °C 11,6 °C 49 % 89 % 1010,8 hPa 0,0 l/m² 15,6 km/h (3 Bft) W-SW 9,8 °C 7,0 °C
07.12.2018 05:00 22,6 °C 11,8 °C 49 % 89 % 1010,2 hPa 0,0 l/m² 17,5 km/h (3 Bft) W-SW 10,0 °C 6,5 °C
07.12.2018 06:00 22,6 °C 11,6 °C 49 % 89 % 1010,0 hPa 0,0 l/m² 10,3 km/h (2 Bft) W-SW 9,9 °C 9,4 °C
07.12.2018 07:00 22,5 °C 11,4 °C 49 % 90 % 1009,6 hPa 0,0 l/m² 8,9 km/h (2 Bft) W-SW 9,7 °C 9,8 °C
07.12.2018 08:00 22,5 °C 11,2 °C 49 % 91 % 1009,5 hPa 0,5 l/m² 11,7 km/h (2 Bft) W-SW 9,8 °C 8,2 °C
07.12.2018 09:00 22,5 °C 11,2 °C 48 % 92 % 1008,9 hPa 2,6 l/m² 9,5 km/h (2 Bft) SW 9,9 °C 9,2 °C
07.12.2018 10:00 22,4 °C 11,3 °C 48 % 93 % 1008,3 hPa 0,5 l/m² 10,6 km/h (2 Bft) SW 10,2 °C 8,8 °C
07.12.2018 11:00 22,4 °C 11,6 °C 48 % 92 % 1007,3 hPa 0,5 l/m² 13,5 km/h (3 Bft) SW 10,4 °C 7,8 °C
07.12.2018 12:00 22,4 °C 11,5 °C 48 % 91 % 1006,1 hPa 1,0 l/m² 23,0 km/h (4 Bft) W-SW 10,1 °C 4,6 °C
07.12.2018 13:00 22,4 °C 11,6 °C 48 % 90 % 1004,9 hPa 0,0 l/m² 27,3 km/h (5 Bft) SW 9,9 °C 3,6 °C
07.12.2018 14:00 22,4 °C 11,4 °C 48 % 88 % 1003,8 hPa 0,0 l/m² 24,4 km/h (4 Bft) SW 9,6 °C 4,0 °C
07.12.2018 15:00 22,4 °C 11,3 °C 48 % 88 % 1002,4 hPa 0,0 l/m² 22,3 km/h (4 Bft) SW 9,5 °C 4,5 °C
07.12.2018 16:00 22,4 °C 11,4 °C 49 % 87 % 1001,2 hPa 0,0 l/m² 22,5 km/h (4 Bft) SW 9,3 °C 4,5 °C
07.12.2018 17:00 22,4 °C 11,1 °C 49 % 88 % 1000,4 hPa 0,5 l/m² 13,9 km/h (3 Bft) S-SW 9,2 °C 7,3 °C
07.12.2018 18:00 22,4 °C 10,9 °C 49 % 89 % 999,2 hPa 0,0 l/m² 26,0 km/h (4 Bft) S-SW 9,1 °C 3,0 °C
07.12.2018 19:00 22,4 °C 11,0 °C 50 % 86 % 998,7 hPa 0,0 l/m² 28,6 km/h (5 Bft) SW 8,7 °C 2,4 °C
07.12.2018 20:00 22,5 °C 10,5 °C 50 % 86 % 998,0 hPa 0,0 l/m² 27,6 km/h (5 Bft) W-SW 8,2 °C 2,1 °C
07.12.2018 21:00 22,7 °C 10,3 °C 51 % 85 % 997,5 hPa 0,0 l/m² 27,8 km/h (5 Bft) SW 7,8 °C 1,5 °C
07.12.2018 22:00 22,9 °C 10,1 °C 51 % 85 % 997,3 hPa 0,0 l/m² 25,2 km/h (4 Bft) SW 7,7 °C 2,0 °C
07.12.2018 23:00 22,9 °C 9,9 °C 50 % 86 % 997,5 hPa 0,0 l/m² 20,5 km/h (4 Bft) W-SW 7,7 °C 3,1 °C
08.12.2018 00:00 22,7 °C 8,8 °C 50 % 83 % 999,9 hPa 0,0 l/m² 23,1 km/h (4 Bft) W 6,0 °C 0,8 °C
08.12.2018 01:00 22,5 °C 7,4 °C 50 % 83 % 1001,5 hPa 0,0 l/m² 23,6 km/h (4 Bft) W 4,6 °C -1,2 °C
08.12.2018 02:00 22,5 °C 6,4 °C 50 % 85 % 1002,4 hPa 0,0 l/m² 25,1 km/h (4 Bft) W-SW 4,0 °C -2,9 °C
08.12.2018 03:00 22,4 °C 5,4 °C 50 % 86 % 1002,8 hPa 0,0 l/m² 16,8 km/h (3 Bft) W 3,3 °C -0,9 °C
08.12.2018 04:00 22,4 °C 4,8 °C 49 % 88 % 1003,3 hPa 0,0 l/m² 18,1 km/h (3 Bft) W-SW 3,0 °C -2,3 °C
08.12.2018 05:00 22,4 °C 4,8 °C 49 % 87 % 1003,5 hPa 0,0 l/m² 19,9 km/h (4 Bft) W-SW 2,9 °C -3,1 °C
08.12.2018 06:00 22,4 °C 4,9 °C 49 % 87 % 1003,5 hPa 0,0 l/m² 25,7 km/h (4 Bft) W-SW 3,0 °C -4,8 °C
08.12.2018 07:00 22,3 °C 4,9 °C 49 % 87 % 1003,7 hPa 0,0 l/m² 19,0 km/h (3 Bft) W-SW 2,9 °C -2,4 °C
08.12.2018 08:00 22,6 °C 5,4 °C 48 % 86 % 1003,5 hPa 0,0 l/m² 25,0 km/h (4 Bft) SW 3,1 °C -4,3 °C
08.12.2018 09:00 22,7 °C 6,4 °C 45 % 83 % 1003,1 hPa 0,0 l/m² 25,3 km/h (4 Bft) SW 3,7 °C -3,0 °C
08.12.2018 10:00 22,3 °C 7,1 °C 46 % 82 % 1002,8 hPa 0,0 l/m² 29,0 km/h (5 Bft) SW 4,3 °C -3,1 °C
08.12.2018 11:00 22,2 °C 7,9 °C 46 % 81 % 1002,0 hPa 0,0 l/m² 31,1 km/h (5 Bft) W-SW 4,9 °C -2,4 °C
08.12.2018 12:00 22,6 °C 9,3 °C 46 % 78 % 1001,0 hPa 0,0 l/m² 34,3 km/h (5 Bft) W-SW 5,7 °C -1,2 °C
08.12.2018 13:00 22,6 °C 8,7 °C 46 % 79 % 1000,5 hPa 0,0 l/m² 35,5 km/h (5 Bft) W-SW 5,2 °C -2,2 °C
08.12.2018 14:00 22,5 °C 7,9 °C 46 % 82 % 1000,2 hPa 0,0 l/m² 37,4 km/h (5 Bft) W-SW 5,0 °C -3,6 °C
08.12.2018 15:00 22,3 °C 7,6 °C 46 % 84 % 1000,4 hPa 0,0 l/m² 29,2 km/h (5 Bft) W-SW 5,1 °C -2,5 °C
08.12.2018 16:00 22,2 °C 7,6 °C 46 % 85 % 1000,8 hPa 0,0 l/m² 24,9 km/h (4 Bft) W-SW 5,2 °C -1,3 °C
08.12.2018 17:00 22,4 °C 7,2 °C 48 % 86 % 1000,4 hPa 0,0 l/m² 22,3 km/h (4 Bft) W-SW 4,9 °C -0,9 °C
08.12.2018 18:00 22,5 °C 7,3 °C 48 % 86 % 1000,2 hPa 0,0 l/m² 27,8 km/h (5 Bft) SW 5,0 °C -2,4 °C
08.12.2018 19:00 22,7 °C 7,2 °C 47 % 85 % 999,6 hPa 0,0 l/m² 27,3 km/h (5 Bft) W-SW 4,9 °C -2,5 °C
08.12.2018 20:00 22,6 °C 6,9 °C 48 % 86 % 999,0 hPa 0,0 l/m² 23,0 km/h (4 Bft) W-SW 4,7 °C -1,5 °C
08.12.2018 21:00 22,7 °C 6,8 °C 49 % 86 % 998,1 hPa 0,0 l/m² 17,0 km/h (3 Bft) SW 4,7 °C 0,8 °C
08.12.2018 22:00 23,1 °C 7,6 °C 49 % 85 % 996,2 hPa 0,0 l/m² 19,1 km/h (3 Bft) S-SW 5,2 °C 0,8 °C
08.12.2018 23:00 23,1 °C 8,1 °C 48 % 84 % 994,5 hPa 0,0 l/m² 23,2 km/h (4 Bft) SW 5,5 °C -0,1 °C
09.12.2018 00:00 22,8 °C 7,9 °C 48 % 87 % 992,8 hPa 2,1 l/m² 25,3 km/h (4 Bft) SW 5,9 °C -1,0 °C
09.12.2018 01:00 22,6 °C 7,5 °C 48 % 90 % 991,0 hPa 0,5 l/m² 20,3 km/h (4 Bft) S-SW 6,0 °C 0,1 °C
09.12.2018 02:00 22,6 °C 8,1 °C 48 % 90 % 990,2 hPa 0,0 l/m² 24,0 km/h (4 Bft) W-SW 6,5 °C -0,3 °C
09.12.2018 03:00 22,4 °C 7,8 °C 48 % 90 % 989,6 hPa 0,5 l/m² 25,1 km/h (4 Bft) W-SW 6,4 °C -1,0 °C
09.12.2018 04:00 22,4 °C 7,9 °C 48 % 90 % 989,6 hPa 0,5 l/m² 25,8 km/h (4 Bft) W-SW 6,4 °C -1,1 °C
09.12.2018 05:00 22,4 °C 6,8 °C 48 % 90 % 989,9 hPa 0,0 l/m² 19,9 km/h (4 Bft) W-SW 5,2 °C -0,5 °C
09.12.2018 06:00 22,4 °C 7,1 °C 48 % 90 % 990,4 hPa 0,0 l/m² 26,5 km/h (4 Bft) W-SW 5,6 °C -2,3 °C
09.12.2018 07:00 22,3 °C 6,7 °C 48 % 89 % 991,2 hPa 0,0 l/m² 23,2 km/h (4 Bft) W-SW 5,0 °C -1,8 °C
09.12.2018 08:00 22,3 °C 6,3 °C 48 % 90 % 992,0 hPa 0,0 l/m² 18,0 km/h (3 Bft) W-SW 4,7 °C -0,5 °C
09.12.2018 09:00 22,4 °C 6,8 °C 47 % 90 % 992,6 hPa 0,0 l/m² 19,6 km/h (3 Bft) W-SW 5,3 °C -0,5 °C
09.12.2018 10:00 22,3 °C 7,4 °C 46 % 90 % 993,1 hPa 0,0 l/m² 22,9 km/h (4 Bft) W-SW 5,9 °C -0,9 °C
09.12.2018 11:00 22,3 °C 7,9 °C 47 % 88 % 993,2 hPa 0,0 l/m² 26,2 km/h (4 Bft) W-SW 6,1 °C -1,2 °C
09.12.2018 12:00 22,4 °C 7,7 °C 48 % 88 % 993,6 hPa 1,0 l/m² 24,9 km/h (4 Bft) W-NW 5,8 °C -1,0 °C
09.12.2018 13:00 22,5 °C 7,3 °C 48 % 90 % 994,4 hPa 0,5 l/m² 15,4 km/h (3 Bft) W 5,7 °C 2,1 °C
09.12.2018 14:00 22,5 °C 7,8 °C 48 % 89 % 995,1 hPa 0,0 l/m² 20,9 km/h (4 Bft) W-SW 6,1 °C 0,3 °C
09.12.2018 15:00 22,4 °C 7,5 °C 48 % 89 % 995,9 hPa 0,0 l/m² 20,0 km/h (4 Bft) W-SW 5,8 °C 0,3 °C
09.12.2018 16:00 22,4 °C 7,0 °C 48 % 89 % 996,5 hPa 0,0 l/m² 21,0 km/h (4 Bft) W-SW 5,3 °C -0,8 °C
09.12.2018 17:00 22,8 °C 6,8 °C 49 % 88 % 997,5 hPa 0,0 l/m² 23,8 km/h (4 Bft) W-SW 5,0 °C -2,0 °C
09.12.2018 18:00 23,3 °C 6,6 °C 49 % 88 % 998,7 hPa 0,0 l/m² 20,7 km/h (4 Bft) W-SW 4,8 °C -1,2 °C
09.12.2018 19:00 23,1 °C 6,7 °C 49 % 88 % 999,9 hPa 0,0 l/m² 20,1 km/h (4 Bft) W 4,9 °C -0,7 °C
09.12.2018 20:00 23,2 °C 7,1 °C 50 % 84 % 1001,3 hPa 0,0 l/m² 28,1 km/h (5 Bft) W-NW 4,5 °C -2,7 °C
09.12.2018 21:00 23,6 °C 6,5 °C 51 % 83 % 1002,5 hPa 0,0 l/m² 27,3 km/h (5 Bft) W-NW 3,8 °C -3,3 °C
09.12.2018 22:00 23,8 °C 6,7 °C 50 % 81 % 1003,6 hPa 0,0 l/m² 28,1 km/h (5 Bft) W-NW 3,6 °C -3,3 °C
09.12.2018 23:00 23,3 °C 6,1 °C 49 % 80 % 1004,7 hPa 0,0 l/m² 26,0 km/h (4 Bft) W-NW 2,9 °C -3,5 °C
Min-Datum _ 08.12.18 05.12.18 05.12.18 04.12.18 09.12.18 - 06.12.18 - 05.12.18 08.12.18
_ Min-Zeit 16:59 08:25 18:01 14:45 03:33 - 22:01 - 08:25 07:03
Minimum _ 22,1 °C -2,8 °C 42 % 75 % 989,3 hPa - 0,0 km/h (0 Bft) - -3,8 °C -8,4 °C
Max-Datum _ 05.12.18 03.12.18 09.12.18 03.12.18 05.12.18 07.12.18 08.12.18 - 03.12.18 03.12.18
_ Max-Zeit 13:03 15:05 21:01 08:01 09:27 09:13 14:01 - 12:33 13:49
Maximum _ 24,6 °C 14,1 °C 51 % 95 % 1027,5 hPa 2,6 l/m² 54,7 km/h
W-SW (7 Bft)
- 12,1 °C 13,9 °C
Durchschnitt _ 22,8 °C 7,0 °C 47 % 88 % 1007,9 hPa #18,1 l/m² 14,7 km/h (3 Bft) W-SW 5,2 °C 2,5 °C
© 2009 Mathias Hoßbach